Portada
METAR-TAF:

METAR-TAF

Aeropuertos :

Metropolis Municipal Airport

Metropolis, Illinois, Estados Unidos

latitud: 37-11-09N, longitud: 088-45-02W, altitud: 117 m

Observación

El informe se hizo hace 16 minutos, a las 20:15 UTC
Viento 4 kt del sur-suroeste
Temperatura 31°C
Humedad 55%
Presión 1023 hPa
Visibilidad: 16.1 km
Nubes dispersas a una altura de 7500 ft

METAR: KM30 192015Z AUTO 20004KT 10SM SCT075 31/21 A3021 RMK AO2 T03110205

Hora: 15:31 (20:31 UTC)


TAF: falta

Observaciones y pronósticos meteorológicos de más de 4000 aeropuertos (mensajes METAR y TAF).

Los puntos amarillos y rojos representan las estaciones disponibles.

Ponga el ratón en el punto deseado para ver el nombre de la estación.

Haga clic para ver las observaciones y los pronósticos meteorológicos.

Para cambiar el mapa : haga clic en los botones verdes con una cruz de color negro para hacer un zoom, en el botón verde con un guión para alejar o en las flechas verdes para mapas adyacentes.


METAR-TAF: